sensor_id;sensor_type;location;lat;lon;timestamp;P1;durP1;ratioP1;P2;durP2;ratioP2
18879;SDS011;9572;52.378;13.404;2023-10-08T00:01:16;2.53;;;1.20;;
18879;SDS011;9572;52.378;13.404;2023-10-08T00:03:57;3.67;;;0.95;;
18879;SDS011;9572;52.378;13.404;2023-10-08T00:06:27;3.15;;;0.95;;
18879;SDS011;9572;52.378;13.404;2023-10-08T00:08:56;6.43;;;2.00;;
18879;SDS011;9572;52.378;13.404;2023-10-08T00:11:26;2.63;;;0.90;;
18879;SDS011;9572;52.378;13.404;2023-10-08T00:13:55;3.40;;;1.10;;
18879;SDS011;9572;52.378;13.404;2023-10-08T00:16:22;3.55;;;0.75;;
18879;SDS011;9572;52.378;13.404;2023-10-08T00:18:51;2.95;;;0.88;;
18879;SDS011;9572;52.378;13.404;2023-10-08T00:21:18;5.50;;;0.82;;
18879;SDS011;9572;52.378;13.404;2023-10-08T00:23:51;5.15;;;1.05;;
18879;SDS011;9572;52.378;13.404;2023-10-08T00:26:23;3.08;;;1.02;;
18879;SDS011;9572;52.378;13.404;2023-10-08T00:28:56;5.45;;;1.20;;
18879;SDS011;9572;52.378;13.404;2023-10-08T00:31:28;6.05;;;1.27;;
18879;SDS011;9572;52.378;13.404;2023-10-08T00:34:07;4.95;;;1.13;;
18879;SDS011;9572;52.378;13.404;2023-10-08T00:37:09;4.40;;;1.38;;
18879;SDS011;9572;52.378;13.404;2023-10-08T00:39:49;1.83;;;1.02;;
18879;SDS011;9572;52.378;13.404;2023-10-08T00:42:26;2.28;;;1.10;;
18879;SDS011;9572;52.378;13.404;2023-10-08T00:48:46;3.38;;;1.00;;
18879;SDS011;9572;52.378;13.404;2023-10-08T00:51:14;5.90;;;0.80;;
18879;SDS011;9572;52.378;13.404;2023-10-08T00:53:54;4.63;;;1.20;;
18879;SDS011;9572;52.378;13.404;2023-10-08T00:56:26;2.15;;;0.93;;
18879;SDS011;9572;52.378;13.404;2023-10-08T00:59:11;3.67;;;1.05;;
18879;SDS011;9572;52.378;13.404;2023-10-08T01:01:41;2.67;;;1.02;;
18879;SDS011;9572;52.378;13.404;2023-10-08T01:04:15;4.43;;;1.13;;
18879;SDS011;9572;52.378;13.404;2023-10-08T01:06:42;5.60;;;1.30;;
18879;SDS011;9572;52.378;13.404;2023-10-08T01:09:16;5.20;;;1.08;;
18879;SDS011;9572;52.378;13.404;2023-10-08T01:11:52;3.58;;;1.02;;
18879;SDS011;9572;52.378;13.404;2023-10-08T01:14:34;4.53;;;1.17;;
18879;SDS011;9572;52.378;13.404;2023-10-08T01:17:01;5.88;;;1.10;;
18879;SDS011;9572;52.378;13.404;2023-10-08T01:19:33;5.55;;;1.60;;
18879;SDS011;9572;52.378;13.404;2023-10-08T01:22:17;6.80;;;1.30;;
18879;SDS011;9572;52.378;13.404;2023-10-08T01:24:46;4.22;;;1.27;;
18879;SDS011;9572;52.378;13.404;2023-10-08T01:27:14;4.20;;;1.38;;
18879;SDS011;9572;52.378;13.404;2023-10-08T01:29:46;3.97;;;1.33;;
18879;SDS011;9572;52.378;13.404;2023-10-08T01:32:16;2.45;;;1.08;;
18879;SDS011;9572;52.378;13.404;2023-10-08T01:35:05;3.58;;;1.58;;
18879;SDS011;9572;52.378;13.404;2023-10-08T01:37:49;5.15;;;1.60;;
18879;SDS011;9572;52.378;13.404;2023-10-08T01:40:46;3.33;;;1.20;;
18879;SDS011;9572;52.378;13.404;2023-10-08T01:43:28;3.28;;;1.48;;
18879;SDS011;9572;52.378;13.404;2023-10-08T01:46:21;5.05;;;1.90;;
18879;SDS011;9572;52.378;13.404;2023-10-08T01:59:06;3.13;;;1.10;;
18879;SDS011;9572;52.378;13.404;2023-10-08T02:05:38;4.43;;;1.40;;
18879;SDS011;9572;52.378;13.404;2023-10-08T02:11:29;3.22;;;1.00;;
18879;SDS011;9572;52.378;13.404;2023-10-08T02:33:57;4.63;;;1.73;;
18879;SDS011;9572;52.378;13.404;2023-10-08T02:36:33;6.75;;;1.90;;
18879;SDS011;9572;52.378;13.404;2023-10-08T02:41:56;11.82;;;2.40;;
18879;SDS011;9572;52.378;13.404;2023-10-08T02:44:36;8.63;;;2.30;;
18879;SDS011;9572;52.378;13.404;2023-10-08T02:47:08;10.73;;;2.72;;
18879;SDS011;9572;52.378;13.404;2023-10-08T02:49:45;6.47;;;2.22;;
18879;SDS011;9572;52.378;13.404;2023-10-08T02:52:24;6.18;;;2.25;;
18879;SDS011;9572;52.378;13.404;2023-10-08T02:54:54;5.13;;;2.40;;
18879;SDS011;9572;52.378;13.404;2023-10-08T02:57:33;4.63;;;1.83;;
18879;SDS011;9572;52.378;13.404;2023-10-08T03:00:03;5.20;;;2.25;;
18879;SDS011;9572;52.378;13.404;2023-10-08T03:02:39;9.60;;;2.53;;
18879;SDS011;9572;52.378;13.404;2023-10-08T03:05:09;12.38;;;2.42;;
18879;SDS011;9572;52.378;13.404;2023-10-08T03:08:21;5.88;;;2.67;;
18879;SDS011;9572;52.378;13.404;2023-10-08T03:10:56;7.45;;;2.70;;
18879;SDS011;9572;52.378;13.404;2023-10-08T03:16:39;7.55;;;2.78;;
18879;SDS011;9572;52.378;13.404;2023-10-08T03:19:34;7.47;;;2.55;;
18879;SDS011;9572;52.378;13.404;2023-10-08T03:22:03;7.20;;;2.58;;
18879;SDS011;9572;52.378;13.404;2023-10-08T03:24:32;8.02;;;2.50;;
18879;SDS011;9572;52.378;13.404;2023-10-08T03:27:13;9.07;;;2.75;;
18879;SDS011;9572;52.378;13.404;2023-10-08T03:32:39;7.18;;;3.00;;
18879;SDS011;9572;52.378;13.404;2023-10-08T03:35:10;7.30;;;2.47;;
18879;SDS011;9572;52.378;13.404;2023-10-08T03:37:43;10.50;;;2.60;;
18879;SDS011;9572;52.378;13.404;2023-10-08T03:40:15;9.70;;;2.58;;
18879;SDS011;9572;52.378;13.404;2023-10-08T03:43:07;7.47;;;2.67;;
18879;SDS011;9572;52.378;13.404;2023-10-08T03:45:44;7.35;;;2.42;;
18879;SDS011;9572;52.378;13.404;2023-10-08T03:48:16;6.50;;;2.30;;
18879;SDS011;9572;52.378;13.404;2023-10-08T03:50:48;9.27;;;2.83;;
18879;SDS011;9572;52.378;13.404;2023-10-08T03:53:22;6.78;;;2.53;;
18879;SDS011;9572;52.378;13.404;2023-10-08T03:55:50;6.40;;;2.13;;
18879;SDS011;9572;52.378;13.404;2023-10-08T03:58:20;6.65;;;2.80;;
18879;SDS011;9572;52.378;13.404;2023-10-08T04:00:55;7.72;;;2.50;;
18879;SDS011;9572;52.378;13.404;2023-10-08T04:03:36;8.18;;;2.85;;
18879;SDS011;9572;52.378;13.404;2023-10-08T04:06:24;11.57;;;3.55;;
18879;SDS011;9572;52.378;13.404;2023-10-08T04:09:03;4.55;;;2.28;;
18879;SDS011;9572;52.378;13.404;2023-10-08T04:11:41;8.85;;;3.45;;
18879;SDS011;9572;52.378;13.404;2023-10-08T04:14:21;7.82;;;2.95;;
18879;SDS011;9572;52.378;13.404;2023-10-08T04:16:55;6.72;;;2.25;;
18879;SDS011;9572;52.378;13.404;2023-10-08T04:19:25;10.48;;;3.33;;
18879;SDS011;9572;52.378;13.404;2023-10-08T04:21:55;6.57;;;3.20;;
18879;SDS011;9572;52.378;13.404;2023-10-08T04:24:23;4.68;;;2.72;;
18879;SDS011;9572;52.378;13.404;2023-10-08T04:26:59;9.25;;;2.80;;
18879;SDS011;9572;52.378;13.404;2023-10-08T04:29:28;5.38;;;3.00;;
18879;SDS011;9572;52.378;13.404;2023-10-08T04:31:57;6.75;;;2.70;;
18879;SDS011;9572;52.378;13.404;2023-10-08T04:34:33;8.20;;;2.92;;
18879;SDS011;9572;52.378;13.404;2023-10-08T04:37:01;8.20;;;2.60;;
18879;SDS011;9572;52.378;13.404;2023-10-08T04:39:38;7.28;;;3.08;;
18879;SDS011;9572;52.378;13.404;2023-10-08T04:42:06;9.73;;;2.88;;
18879;SDS011;9572;52.378;13.404;2023-10-08T04:44:36;8.73;;;2.83;;
18879;SDS011;9572;52.378;13.404;2023-10-08T04:47:05;11.10;;;3.47;;
18879;SDS011;9572;52.378;13.404;2023-10-08T04:49:33;6.63;;;3.10;;
18879;SDS011;9572;52.378;13.404;2023-10-08T04:52:11;7.88;;;2.33;;
18879;SDS011;9572;52.378;13.404;2023-10-08T04:54:41;5.45;;;2.85;;
18879;SDS011;9572;52.378;13.404;2023-10-08T04:57:16;5.45;;;2.90;;
18879;SDS011;9572;52.378;13.404;2023-10-08T04:59:47;7.93;;;3.00;;
18879;SDS011;9572;52.378;13.404;2023-10-08T05:02:16;3.90;;;2.47;;
18879;SDS011;9572;52.378;13.404;2023-10-08T05:04:54;9.57;;;2.47;;
18879;SDS011;9572;52.378;13.404;2023-10-08T05:07:48;6.85;;;2.60;;
18879;SDS011;9572;52.378;13.404;2023-10-08T05:10:42;15.43;;;2.70;;
18879;SDS011;9572;52.378;13.404;2023-10-08T05:13:23;7.10;;;2.83;;
18879;SDS011;9572;52.378;13.404;2023-10-08T05:15:57;9.88;;;2.72;;
18879;SDS011;9572;52.378;13.404;2023-10-08T05:18:54;6.57;;;2.50;;
18879;SDS011;9572;52.378;13.404;2023-10-08T05:21:39;6.45;;;2.55;;
18879;SDS011;9572;52.378;13.404;2023-10-08T05:24:28;6.68;;;2.60;;
18879;SDS011;9572;52.378;13.404;2023-10-08T05:27:03;6.45;;;2.55;;
18879;SDS011;9572;52.378;13.404;2023-10-08T05:30:02;5.78;;;2.58;;
18879;SDS011;9572;52.378;13.404;2023-10-08T05:32:41;7.43;;;2.53;;
18879;SDS011;9572;52.378;13.404;2023-10-08T05:35:31;7.70;;;2.50;;
18879;SDS011;9572;52.378;13.404;2023-10-08T05:38:14;9.68;;;2.80;;
18879;SDS011;9572;52.378;13.404;2023-10-08T05:40:49;10.55;;;2.65;;
18879;SDS011;9572;52.378;13.404;2023-10-08T05:43:42;4.80;;;2.30;;
18879;SDS011;9572;52.378;13.404;2023-10-08T05:46:21;5.80;;;2.50;;
18879;SDS011;9572;52.378;13.404;2023-10-08T05:49:12;6.88;;;2.60;;
18879;SDS011;9572;52.378;13.404;2023-10-08T05:52:03;4.95;;;2.30;;
18879;SDS011;9572;52.378;13.404;2023-10-08T05:54:44;5.95;;;2.28;;
18879;SDS011;9572;52.378;13.404;2023-10-08T05:57:39;4.43;;;2.28;;
18879;SDS011;9572;52.378;13.404;2023-10-08T06:00:06;7.30;;;2.80;;
18879;SDS011;9572;52.378;13.404;2023-10-08T06:02:51;4.55;;;2.50;;
18879;SDS011;9572;52.378;13.404;2023-10-08T06:05:35;7.25;;;2.70;;
18879;SDS011;9572;52.378;13.404;2023-10-08T06:08:29;7.47;;;3.03;;
18879;SDS011;9572;52.378;13.404;2023-10-08T06:11:14;8.52;;;2.50;;
18879;SDS011;9572;52.378;13.404;2023-10-08T06:13:58;8.75;;;2.75;;
18879;SDS011;9572;52.378;13.404;2023-10-08T06:16:26;9.55;;;2.78;;
18879;SDS011;9572;52.378;13.404;2023-10-08T06:19:13;6.50;;;2.70;;
18879;SDS011;9572;52.378;13.404;2023-10-08T06:21:42;7.68;;;2.60;;
18879;SDS011;9572;52.378;13.404;2023-10-08T06:24:13;6.32;;;2.78;;
18879;SDS011;9572;52.378;13.404;2023-10-08T06:26:42;4.53;;;1.92;;
18879;SDS011;9572;52.378;13.404;2023-10-08T06:29:19;5.10;;;2.85;;
18879;SDS011;9572;52.378;13.404;2023-10-08T06:31:52;6.38;;;2.88;;
18879;SDS011;9572;52.378;13.404;2023-10-08T06:34:27;6.20;;;2.40;;
18879;SDS011;9572;52.378;13.404;2023-10-08T06:36:56;9.40;;;2.50;;
18879;SDS011;9572;52.378;13.404;2023-10-08T06:39:25;10.35;;;3.13;;
18879;SDS011;9572;52.378;13.404;2023-10-08T06:41:58;12.85;;;3.03;;
18879;SDS011;9572;52.378;13.404;2023-10-08T06:44:28;5.03;;;2.42;;
18879;SDS011;9572;52.378;13.404;2023-10-08T06:46:55;7.75;;;3.10;;
18879;SDS011;9572;52.378;13.404;2023-10-08T06:49:23;7.55;;;3.00;;
18879;SDS011;9572;52.378;13.404;2023-10-08T06:51:56;10.15;;;2.83;;
18879;SDS011;9572;52.378;13.404;2023-10-08T06:54:23;10.48;;;2.22;;
18879;SDS011;9572;52.378;13.404;2023-10-08T06:56:55;5.05;;;1.95;;
18879;SDS011;9572;52.378;13.404;2023-10-08T06:59:22;5.82;;;1.75;;
18879;SDS011;9572;52.378;13.404;2023-10-08T07:01:58;7.05;;;2.25;;
18879;SDS011;9572;52.378;13.404;2023-10-08T07:04:25;8.18;;;2.45;;
18879;SDS011;9572;52.378;13.404;2023-10-08T07:06:54;7.03;;;2.40;;
18879;SDS011;9572;52.378;13.404;2023-10-08T07:09:21;7.60;;;2.25;;
18879;SDS011;9572;52.378;13.404;2023-10-08T07:11:55;10.35;;;2.30;;
18879;SDS011;9572;52.378;13.404;2023-10-08T07:14:23;5.97;;;1.58;;
18879;SDS011;9572;52.378;13.404;2023-10-08T07:16:52;6.28;;;2.00;;
18879;SDS011;9572;52.378;13.404;2023-10-08T07:19:30;7.88;;;1.85;;
18879;SDS011;9572;52.378;13.404;2023-10-08T07:22:03;4.82;;;1.80;;
18879;SDS011;9572;52.378;13.404;2023-10-08T07:24:43;6.05;;;1.80;;
18879;SDS011;9572;52.378;13.404;2023-10-08T07:27:15;3.83;;;1.50;;
18879;SDS011;9572;52.378;13.404;2023-10-08T07:29:47;5.35;;;1.80;;
18879;SDS011;9572;52.378;13.404;2023-10-08T07:32:14;4.18;;;1.48;;
18879;SDS011;9572;52.378;13.404;2023-10-08T07:34:49;7.53;;;1.65;;
18879;SDS011;9572;52.378;13.404;2023-10-08T07:37:22;5.60;;;1.65;;
18879;SDS011;9572;52.378;13.404;2023-10-08T07:39:53;4.88;;;1.70;;
18879;SDS011;9572;52.378;13.404;2023-10-08T07:42:23;6.82;;;1.33;;
18879;SDS011;9572;52.378;13.404;2023-10-08T07:44:53;4.45;;;1.50;;
18879;SDS011;9572;52.378;13.404;2023-10-08T07:47:24;2.50;;;1.25;;
18879;SDS011;9572;52.378;13.404;2023-10-08T07:49:58;4.95;;;1.48;;
18879;SDS011;9572;52.378;13.404;2023-10-08T07:52:26;4.53;;;1.40;;
18879;SDS011;9572;52.378;13.404;2023-10-08T07:54:54;7.40;;;1.60;;
18879;SDS011;9572;52.378;13.404;2023-10-08T07:57:24;6.22;;;1.63;;
18879;SDS011;9572;52.378;13.404;2023-10-08T07:59:53;3.45;;;1.52;;
18879;SDS011;9572;52.378;13.404;2023-10-08T08:02:42;3.78;;;1.40;;
18879;SDS011;9572;52.378;13.404;2023-10-08T08:05:17;3.78;;;1.23;;
18879;SDS011;9572;52.378;13.404;2023-10-08T08:07:45;3.35;;;1.25;;
18879;SDS011;9572;52.378;13.404;2023-10-08T08:10:14;5.28;;;1.35;;
18879;SDS011;9572;52.378;13.404;2023-10-08T08:12:43;6.68;;;1.50;;
18879;SDS011;9572;52.378;13.404;2023-10-08T08:15:16;2.28;;;1.30;;
18879;SDS011;9572;52.378;13.404;2023-10-08T08:17:44;4.10;;;1.33;;
18879;SDS011;9572;52.378;13.404;2023-10-08T08:20:13;1.90;;;0.90;;
18879;SDS011;9572;52.378;13.404;2023-10-08T08:22:45;2.70;;;0.90;;
18879;SDS011;9572;52.378;13.404;2023-10-08T08:25:19;1.90;;;0.90;;
18879;SDS011;9572;52.378;13.404;2023-10-08T08:27:59;3.30;;;0.80;;
18879;SDS011;9572;52.378;13.404;2023-10-08T08:30:26;4.68;;;0.95;;
18879;SDS011;9572;52.378;13.404;2023-10-08T08:32:53;7.28;;;1.20;;
18879;SDS011;9572;52.378;13.404;2023-10-08T08:35:25;4.53;;;1.00;;
18879;SDS011;9572;52.378;13.404;2023-10-08T08:37:58;6.72;;;1.17;;
18879;SDS011;9572;52.378;13.404;2023-10-08T08:40:25;4.38;;;1.10;;
18879;SDS011;9572;52.378;13.404;2023-10-08T08:42:52;2.45;;;0.82;;
18879;SDS011;9572;52.378;13.404;2023-10-08T08:45:27;2.13;;;0.90;;
18879;SDS011;9572;52.378;13.404;2023-10-08T08:47:58;2.17;;;0.75;;
18879;SDS011;9572;52.378;13.404;2023-10-08T08:50:25;3.15;;;0.93;;
18879;SDS011;9572;52.378;13.404;2023-10-08T08:52:58;2.58;;;0.57;;
18879;SDS011;9572;52.378;13.404;2023-10-08T08:55:25;1.48;;;0.70;;
18879;SDS011;9572;52.378;13.404;2023-10-08T08:57:53;3.42;;;1.52;;
18879;SDS011;9572;52.378;13.404;2023-10-08T09:00:23;3.60;;;1.00;;
18879;SDS011;9572;52.378;13.404;2023-10-08T09:02:53;2.55;;;1.00;;
18879;SDS011;9572;52.378;13.404;2023-10-08T09:05:20;2.20;;;0.90;;
18879;SDS011;9572;52.378;13.404;2023-10-08T09:08:01;2.60;;;0.73;;
18879;SDS011;9572;52.378;13.404;2023-10-08T09:10:35;1.08;;;0.77;;
18879;SDS011;9572;52.378;13.404;2023-10-08T09:13:03;1.98;;;0.77;;
18879;SDS011;9572;52.378;13.404;2023-10-08T09:15:34;2.78;;;0.65;;
18879;SDS011;9572;52.378;13.404;2023-10-08T09:18:03;2.20;;;0.85;;
18879;SDS011;9572;52.378;13.404;2023-10-08T09:20:36;6.80;;;0.75;;
18879;SDS011;9572;52.378;13.404;2023-10-08T09:23:10;1.65;;;0.70;;
18879;SDS011;9572;52.378;13.404;2023-10-08T09:25:38;2.00;;;0.63;;
18879;SDS011;9572;52.378;13.404;2023-10-08T09:28:06;1.30;;;0.88;;
18879;SDS011;9572;52.378;13.404;2023-10-08T09:30:33;2.63;;;0.70;;
18879;SDS011;9572;52.378;13.404;2023-10-08T09:33:04;3.00;;;0.85;;
18879;SDS011;9572;52.378;13.404;2023-10-08T09:35:33;2.88;;;0.85;;
18879;SDS011;9572;52.378;13.404;2023-10-08T09:38:03;2.50;;;0.90;;
18879;SDS011;9572;52.378;13.404;2023-10-08T09:40:40;1.70;;;0.90;;
18879;SDS011;9572;52.378;13.404;2023-10-08T09:43:17;2.83;;;0.70;;
18879;SDS011;9572;52.378;13.404;2023-10-08T09:45:46;1.85;;;0.70;;
18879;SDS011;9572;52.378;13.404;2023-10-08T09:48:17;2.10;;;0.85;;
18879;SDS011;9572;52.378;13.404;2023-10-08T09:50:48;2.22;;;1.13;;
18879;SDS011;9572;52.378;13.404;2023-10-08T09:53:25;2.70;;;0.90;;
18879;SDS011;9572;52.378;13.404;2023-10-08T09:56:11;1.95;;;1.08;;
18879;SDS011;9572;52.378;13.404;2023-10-08T09:58:40;0.82;;;0.60;;
18879;SDS011;9572;52.378;13.404;2023-10-08T10:01:14;1.13;;;0.50;;
18879;SDS011;9572;52.378;13.404;2023-10-08T10:03:43;0.90;;;0.60;;
18879;SDS011;9572;52.378;13.404;2023-10-08T10:06:14;1.75;;;0.80;;
18879;SDS011;9572;52.378;13.404;2023-10-08T10:08:43;2.00;;;0.88;;
18879;SDS011;9572;52.378;13.404;2023-10-08T10:11:17;3.50;;;1.08;;
18879;SDS011;9572;52.378;13.404;2023-10-08T10:13:44;3.67;;;1.02;;
18879;SDS011;9572;52.378;13.404;2023-10-08T10:16:17;1.67;;;0.90;;
18879;SDS011;9572;52.378;13.404;2023-10-08T10:18:48;2.83;;;0.70;;
18879;SDS011;9572;52.378;13.404;2023-10-08T10:21:25;1.88;;;0.70;;
18879;SDS011;9572;52.378;13.404;2023-10-08T10:23:54;1.35;;;0.60;;
18879;SDS011;9572;52.378;13.404;2023-10-08T10:26:27;1.58;;;0.77;;
18879;SDS011;9572;52.378;13.404;2023-10-08T10:31:45;1.02;;;0.80;;
18879;SDS011;9572;52.378;13.404;2023-10-08T10:34:14;3.33;;;0.80;;
18879;SDS011;9572;52.378;13.404;2023-10-08T10:36:43;3.78;;;0.88;;
18879;SDS011;9572;52.378;13.404;2023-10-08T10:39:13;1.40;;;0.75;;
18879;SDS011;9572;52.378;13.404;2023-10-08T10:41:44;1.42;;;0.77;;
18879;SDS011;9572;52.378;13.404;2023-10-08T10:44:13;2.13;;;0.80;;
18879;SDS011;9572;52.378;13.404;2023-10-08T10:46:41;1.42;;;0.70;;
18879;SDS011;9572;52.378;13.404;2023-10-08T10:49:08;1.58;;;0.80;;
18879;SDS011;9572;52.378;13.404;2023-10-08T10:51:47;4.00;;;1.13;;
18879;SDS011;9572;52.378;13.404;2023-10-08T10:54:17;3.40;;;0.80;;
18879;SDS011;9572;52.378;13.404;2023-10-08T10:56:50;1.52;;;0.70;;
18879;SDS011;9572;52.378;13.404;2023-10-08T10:59:28;0.98;;;0.60;;
18879;SDS011;9572;52.378;13.404;2023-10-08T11:02:02;2.70;;;0.80;;
18879;SDS011;9572;52.378;13.404;2023-10-08T11:04:33;1.10;;;0.80;;
18879;SDS011;9572;52.378;13.404;2023-10-08T11:07:12;1.27;;;0.75;;
18879;SDS011;9572;52.378;13.404;2023-10-08T11:09:41;3.10;;;0.80;;
18879;SDS011;9572;52.378;13.404;2023-10-08T11:12:12;0.93;;;0.70;;
18879;SDS011;9572;52.378;13.404;2023-10-08T11:14:45;2.85;;;0.88;;
18879;SDS011;9572;52.378;13.404;2023-10-08T11:17:13;1.48;;;0.80;;
18879;SDS011;9572;52.378;13.404;2023-10-08T11:19:42;1.70;;;0.98;;
18879;SDS011;9572;52.378;13.404;2023-10-08T11:22:11;1.20;;;0.45;;
18879;SDS011;9572;52.378;13.404;2023-10-08T11:24:42;1.45;;;0.77;;
18879;SDS011;9572;52.378;13.404;2023-10-08T11:27:14;1.42;;;0.70;;
18879;SDS011;9572;52.378;13.404;2023-10-08T11:29:53;2.33;;;0.52;;
18879;SDS011;9572;52.378;13.404;2023-10-08T11:32:23;1.08;;;0.55;;
18879;SDS011;9572;52.378;13.404;2023-10-08T11:34:54;4.10;;;0.73;;
18879;SDS011;9572;52.378;13.404;2023-10-08T11:37:27;1.75;;;0.50;;
18879;SDS011;9572;52.378;13.404;2023-10-08T11:39:54;1.00;;;0.60;;
18879;SDS011;9572;52.378;13.404;2023-10-08T11:42:24;1.80;;;0.90;;
18879;SDS011;9572;52.378;13.404;2023-10-08T11:45:09;0.90;;;0.80;;
18879;SDS011;9572;52.378;13.404;2023-10-08T11:47:49;1.73;;;0.60;;
18879;SDS011;9572;52.378;13.404;2023-10-08T11:50:22;1.63;;;0.73;;
18879;SDS011;9572;52.378;13.404;2023-10-08T11:52:55;1.38;;;0.80;;
18879;SDS011;9572;52.378;13.404;2023-10-08T11:55:26;1.05;;;0.70;;
18879;SDS011;9572;52.378;13.404;2023-10-08T11:57:55;1.45;;;1.00;;
18879;SDS011;9572;52.378;13.404;2023-10-08T12:00:24;2.90;;;0.63;;
18879;SDS011;9572;52.378;13.404;2023-10-08T12:02:51;3.22;;;0.65;;
18879;SDS011;9572;52.378;13.404;2023-10-08T12:05:20;1.63;;;0.70;;
18879;SDS011;9572;52.378;13.404;2023-10-08T12:07:48;4.57;;;0.63;;
18879;SDS011;9572;52.378;13.404;2023-10-08T12:10:17;1.40;;;0.50;;
18879;SDS011;9572;52.378;13.404;2023-10-08T12:12:47;1.30;;;0.80;;
18879;SDS011;9572;52.378;13.404;2023-10-08T12:15:18;1.92;;;0.50;;
18879;SDS011;9572;52.378;13.404;2023-10-08T12:17:46;1.67;;;0.73;;
18879;SDS011;9572;52.378;13.404;2023-10-08T12:20:34;1.88;;;0.68;;
18879;SDS011;9572;52.378;13.404;2023-10-08T12:23:03;0.85;;;0.60;;
18879;SDS011;9572;52.378;13.404;2023-10-08T12:25:31;1.30;;;0.55;;
18879;SDS011;9572;52.378;13.404;2023-10-08T12:27:59;1.83;;;0.80;;
18879;SDS011;9572;52.378;13.404;2023-10-08T12:30:30;3.13;;;0.75;;
18879;SDS011;9572;52.378;13.404;2023-10-08T12:33:00;1.10;;;0.60;;
18879;SDS011;9572;52.378;13.404;2023-10-08T12:35:27;1.67;;;0.80;;
18879;SDS011;9572;52.378;13.404;2023-10-08T12:37:55;1.20;;;0.82;;
18879;SDS011;9572;52.378;13.404;2023-10-08T12:40:22;2.55;;;0.80;;
18879;SDS011;9572;52.378;13.404;2023-10-08T12:42:49;0.93;;;0.60;;
18879;SDS011;9572;52.378;13.404;2023-10-08T12:45:17;1.02;;;0.68;;
18879;SDS011;9572;52.378;13.404;2023-10-08T12:47:49;2.13;;;1.00;;
18879;SDS011;9572;52.378;13.404;2023-10-08T12:50:16;3.17;;;1.52;;
18879;SDS011;9572;52.378;13.404;2023-10-08T12:52:52;1.65;;;0.75;;
18879;SDS011;9572;52.378;13.404;2023-10-08T12:55:21;1.35;;;0.77;;
18879;SDS011;9572;52.378;13.404;2023-10-08T12:57:50;0.95;;;0.68;;
18879;SDS011;9572;52.378;13.404;2023-10-08T13:00:21;3.22;;;0.80;;
18879;SDS011;9572;52.378;13.404;2023-10-08T13:02:58;2.22;;;0.60;;
18879;SDS011;9572;52.378;13.404;2023-10-08T13:05:30;2.15;;;0.80;;
18879;SDS011;9572;52.378;13.404;2023-10-08T13:07:59;1.27;;;0.60;;
18879;SDS011;9572;52.378;13.404;2023-10-08T13:10:34;0.80;;;0.50;;
18879;SDS011;9572;52.378;13.404;2023-10-08T13:13:06;2.70;;;1.10;;
18879;SDS011;9572;52.378;13.404;2023-10-08T13:15:33;1.15;;;0.60;;
18879;SDS011;9572;52.378;13.404;2023-10-08T13:18:02;1.05;;;0.70;;
18879;SDS011;9572;52.378;13.404;2023-10-08T13:20:29;1.85;;;0.75;;
18879;SDS011;9572;52.378;13.404;2023-10-08T13:22:58;2.72;;;0.80;;
18879;SDS011;9572;52.378;13.404;2023-10-08T13:25:25;1.45;;;0.70;;
18879;SDS011;9572;52.378;13.404;2023-10-08T13:27:52;1.55;;;0.57;;
18879;SDS011;9572;52.378;13.404;2023-10-08T13:30:19;2.15;;;0.63;;
18879;SDS011;9572;52.378;13.404;2023-10-08T13:32:48;2.85;;;0.63;;
18879;SDS011;9572;52.378;13.404;2023-10-08T13:35:18;4.20;;;0.85;;
18879;SDS011;9572;52.378;13.404;2023-10-08T13:37:45;2.53;;;0.90;;
18879;SDS011;9572;52.378;13.404;2023-10-08T13:40:13;0.90;;;0.35;;
18879;SDS011;9572;52.378;13.404;2023-10-08T13:42:41;0.85;;;0.40;;
18879;SDS011;9572;52.378;13.404;2023-10-08T13:45:08;1.83;;;0.60;;
18879;SDS011;9572;52.378;13.404;2023-10-08T13:47:41;0.88;;;0.60;;
18879;SDS011;9572;52.378;13.404;2023-10-08T13:50:08;1.50;;;0.52;;
18879;SDS011;9572;52.378;13.404;2023-10-08T13:52:39;0.80;;;0.60;;
18879;SDS011;9572;52.378;13.404;2023-10-08T13:55:06;0.93;;;0.60;;
18879;SDS011;9572;52.378;13.404;2023-10-08T13:57:38;1.63;;;1.00;;
18879;SDS011;9572;52.378;13.404;2023-10-08T14:00:07;1.00;;;0.55;;
18879;SDS011;9572;52.378;13.404;2023-10-08T14:02:40;2.85;;;0.70;;
18879;SDS011;9572;52.378;13.404;2023-10-08T14:05:09;0.82;;;0.70;;
18879;SDS011;9572;52.378;13.404;2023-10-08T14:07:42;1.10;;;0.77;;
18879;SDS011;9572;52.378;13.404;2023-10-08T14:10:10;2.83;;;0.75;;
18879;SDS011;9572;52.378;13.404;2023-10-08T14:12:44;2.92;;;0.63;;
18879;SDS011;9572;52.378;13.404;2023-10-08T14:15:14;0.50;;;0.38;;
18879;SDS011;9572;52.378;13.404;2023-10-08T14:17:42;1.02;;;0.68;;
18879;SDS011;9572;52.378;13.404;2023-10-08T14:20:13;0.90;;;0.52;;
18879;SDS011;9572;52.378;13.404;2023-10-08T14:22:48;1.75;;;0.80;;
18879;SDS011;9572;52.378;13.404;2023-10-08T14:25:22;2.08;;;0.50;;
18879;SDS011;9572;52.378;13.404;2023-10-08T14:27:53;1.20;;;0.77;;
18879;SDS011;9572;52.378;13.404;2023-10-08T14:30:29;1.25;;;0.50;;
18879;SDS011;9572;52.378;13.404;2023-10-08T14:32:58;1.40;;;0.82;;
18879;SDS011;9572;52.378;13.404;2023-10-08T14:35:26;2.72;;;1.35;;
18879;SDS011;9572;52.378;13.404;2023-10-08T14:38:12;1.40;;;1.00;;
18879;SDS011;9572;52.378;13.404;2023-10-08T14:41:10;5.30;;;0.80;;
18879;SDS011;9572;52.378;13.404;2023-10-08T14:44:16;1.13;;;0.75;;
18879;SDS011;9572;52.378;13.404;2023-10-08T14:46:43;2.97;;;1.73;;
18879;SDS011;9572;52.378;13.404;2023-10-08T14:49:13;1.25;;;0.95;;
18879;SDS011;9572;52.378;13.404;2023-10-08T14:51:40;3.03;;;1.00;;
18879;SDS011;9572;52.378;13.404;2023-10-08T14:54:08;0.85;;;0.70;;
18879;SDS011;9572;52.378;13.404;2023-10-08T14:56:36;1.05;;;0.70;;
18879;SDS011;9572;52.378;13.404;2023-10-08T14:59:04;1.67;;;0.90;;
18879;SDS011;9572;52.378;13.404;2023-10-08T15:01:31;1.30;;;0.82;;
18879;SDS011;9572;52.378;13.404;2023-10-08T15:03:59;1.20;;;0.77;;
18879;SDS011;9572;52.378;13.404;2023-10-08T15:06:29;2.13;;;1.02;;
18879;SDS011;9572;52.378;13.404;2023-10-08T15:08:57;1.50;;;0.80;;
18879;SDS011;9572;52.378;13.404;2023-10-08T15:11:25;3.00;;;1.00;;
18879;SDS011;9572;52.378;13.404;2023-10-08T15:13:55;1.45;;;1.05;;
18879;SDS011;9572;52.378;13.404;2023-10-08T15:16:22;2.95;;;1.00;;
18879;SDS011;9572;52.378;13.404;2023-10-08T15:18:51;3.35;;;1.15;;
18879;SDS011;9572;52.378;13.404;2023-10-08T15:21:18;2.80;;;1.48;;
18879;SDS011;9572;52.378;13.404;2023-10-08T15:23:46;1.98;;;0.65;;
18879;SDS011;9572;52.378;13.404;2023-10-08T15:26:13;2.22;;;1.02;;
18879;SDS011;9572;52.378;13.404;2023-10-08T15:28:43;1.20;;;0.88;;
18879;SDS011;9572;52.378;13.404;2023-10-08T15:31:10;2.35;;;0.70;;
18879;SDS011;9572;52.378;13.404;2023-10-08T15:33:38;1.23;;;0.90;;
18879;SDS011;9572;52.378;13.404;2023-10-08T15:36:05;1.08;;;0.80;;
18879;SDS011;9572;52.378;13.404;2023-10-08T15:38:32;1.58;;;0.70;;
18879;SDS011;9572;52.378;13.404;2023-10-08T15:40:59;1.95;;;0.80;;
18879;SDS011;9572;52.378;13.404;2023-10-08T15:43:26;1.30;;;0.73;;
18879;SDS011;9572;52.378;13.404;2023-10-08T15:45:54;2.22;;;1.20;;
18879;SDS011;9572;52.378;13.404;2023-10-08T15:48:21;2.58;;;1.05;;
18879;SDS011;9572;52.378;13.404;2023-10-08T15:50:50;1.25;;;0.80;;
18879;SDS011;9572;52.378;13.404;2023-10-08T15:53:17;1.50;;;0.80;;
18879;SDS011;9572;52.378;13.404;2023-10-08T15:55:44;1.77;;;1.05;;
18879;SDS011;9572;52.378;13.404;2023-10-08T15:58:12;1.00;;;0.90;;
18879;SDS011;9572;52.378;13.404;2023-10-08T16:00:39;1.58;;;1.05;;
18879;SDS011;9572;52.378;13.404;2023-10-08T16:03:07;1.33;;;0.90;;
18879;SDS011;9572;52.378;13.404;2023-10-08T16:05:34;1.60;;;1.30;;
18879;SDS011;9572;52.378;13.404;2023-10-08T16:08:02;1.85;;;1.27;;
18879;SDS011;9572;52.378;13.404;2023-10-08T16:10:29;2.13;;;1.45;;
18879;SDS011;9572;52.378;13.404;2023-10-08T16:12:55;4.72;;;2.90;;
18879;SDS011;9572;52.378;13.404;2023-10-08T16:15:22;5.93;;;3.42;;